Forside
METAR-TAF:

METAR-TAF

Lufthavne :

Forrest, Australien

Breddekreds: 30-50-18S, længdekreds: 128-06-54E, højde: 156 m

Aktuelle vejr

Denne rapport blev lavet for 16 minutter siden, kl. 00:30 UTC
Vind 15 kt fra nordnordøst
Temperatur 34°C
Fugtighed 9%
Tryk 1015 hPa
Sigt 10 km eller mere

METAR: YFRT 240030Z AUTO 02015KT 9999 // NCD 34/M03 Q1015 RF00.0/000.0

Tid: 08:46 (00:46 UTC)

Vejrudsigter

Denne rapport blev lavet for 6 timer og 40 minutter siden, kl. 18:06 UTC
Foreløbig gælder fra 23 på 20 UTC til 24 på 08 UTC
Vind 10 kt fra nordnordøst
Sigt 10 km eller mere
ingen skyer under 1500m og ingen cumulonimbus
Fra 24 på 0000 UTC
Vind 14 kt fra nord
Sigt 10 km eller mere
ingen skyer under 1500m og ingen cumulonimbus
Fra 24 på 0500 UTC
Vind 10 kt fra sydøst
Sigt 10 km eller mere
ingen skyer under 1500m og ingen cumulonimbus

TAF: YFRT 231806Z 2320/2408 03010KT CAVOK FM240000 01014KT CAVOK FM240500 13010KT CAVOK

Vejrobservationer og prognoser fra mere end 4000 lufthavne (METAR og TAF).

De gule og røde prikker repræsenterer de meteorologiske stationer.

Flyt musen over at se navnet på stationen.

Så klik over at se vejr observationer og prognoser.

At skifte det kort: Klik på de grønne knapper med et sort kors for at zoome ind; på den grønne knap med en bindestreg for at zoome ud; eller på de grønne pile for tilstødende kort.


METAR-TAF: